createdAt,value
2018-05-17T00:00:45.526Z,27.20
2018-05-17T00:03:19.354Z,23.87
2018-05-17T00:05:53.164Z,26.43
2018-05-17T00:08:27.234Z,31.30
2018-05-17T00:11:01.348Z,22.43
2018-05-17T00:13:35.584Z,21.27
2018-05-17T00:16:10.401Z,26.83
2018-05-17T00:18:45.146Z,24.63
2018-05-17T00:21:19.227Z,28.53
2018-05-17T00:23:53.454Z,26.27
2018-05-17T00:26:27.367Z,25.73
2018-05-17T00:29:01.302Z,28.77
2018-05-17T00:31:36.161Z,27.53
2018-05-17T00:34:10.307Z,22.63
2018-05-17T00:36:44.492Z,26.23
2018-05-17T00:39:18.503Z,24.57
2018-05-17T00:41:52.740Z,25.93
2018-05-17T00:44:27.369Z,23.63
2018-05-17T00:47:01.375Z,24.63
2018-05-17T00:49:35.757Z,26.93
2018-05-17T00:52:09.686Z,19.67
2018-05-17T00:54:44.580Z,26.10
2018-05-17T00:57:18.628Z,20.47
2018-05-17T00:59:53.717Z,21.63
2018-05-17T01:02:27.675Z,23.03
2018-05-17T01:05:01.772Z,28.90
2018-05-17T01:07:40.101Z,23.07
2018-05-17T01:10:15.139Z,28.17
2018-05-17T01:12:49.760Z,23.90
2018-05-17T01:15:23.780Z,27.27
2018-05-17T01:17:58.622Z,25.73
2018-05-17T01:20:32.672Z,24.00
2018-05-17T01:23:06.423Z,24.47
2018-05-17T01:25:41.408Z,28.00
2018-05-17T01:28:15.582Z,35.80
2018-05-17T01:30:50.415Z,28.43
2018-05-17T01:33:24.448Z,23.77
2018-05-17T01:35:58.431Z,25.27
2018-05-17T01:38:32.337Z,30.37
2018-05-17T01:41:07.164Z,31.90
2018-05-17T01:43:41.441Z,30.73
2018-05-17T01:46:16.206Z,28.23
2018-05-17T01:48:50.173Z,31.23
2018-05-17T01:51:24.156Z,31.27
2018-05-17T01:53:58.032Z,33.33
2018-05-17T01:56:32.708Z,28.57
2018-05-17T01:59:07.263Z,37.67
2018-05-17T02:01:41.433Z,38.10
2018-05-17T02:04:15.295Z,30.27
2018-05-17T02:06:49.322Z,24.60
2018-05-17T02:09:25.427Z,29.33
2018-05-17T02:12:01.403Z,36.67
2018-05-17T02:14:36.508Z,31.10
2018-05-17T02:17:10.857Z,27.43
2018-05-17T02:19:45.726Z,22.43
2018-05-17T02:22:19.606Z,25.60
2018-05-17T02:24:54.497Z,20.87
2018-05-17T02:27:30.309Z,29.20
2018-05-17T02:30:04.533Z,26.70
2018-05-17T02:32:39.459Z,30.60
2018-05-17T02:35:16.415Z,32.43
2018-05-17T02:37:50.959Z,27.87
2018-05-17T02:40:25.523Z,29.60
2018-05-17T02:42:59.570Z,32.43
2018-05-17T02:45:33.759Z,25.03
2018-05-17T02:48:07.821Z,18.07
2018-05-17T02:50:42.051Z,35.83
2018-05-17T02:53:17.038Z,31.40
2018-05-17T02:55:50.961Z,34.43
2018-05-17T02:58:26.031Z,25.30
2018-05-17T03:01:01.071Z,27.27
2018-05-17T03:03:35.748Z,24.10
2018-05-17T03:06:14.981Z,25.47
2018-05-17T03:08:50.002Z,25.70
2018-05-17T03:11:24.005Z,24.73
2018-05-17T03:13:58.408Z,24.67
2018-05-17T03:16:32.627Z,26.90
2018-05-17T03:19:06.477Z,22.40
2018-05-17T03:21:41.626Z,31.20
2018-05-17T03:24:15.804Z,35.30
2018-05-17T03:26:58.541Z,30.27
2018-05-17T03:29:32.622Z,26.17
2018-05-17T03:32:06.562Z,25.90
2018-05-17T03:34:41.918Z,32.77
2018-05-17T03:37:15.961Z,25.20
2018-05-17T03:39:50.300Z,25.13
2018-05-17T03:42:24.414Z,29.10
2018-05-17T03:44:58.367Z,35.93
2018-05-17T03:47:33.723Z,24.03
2018-05-17T03:50:07.860Z,21.77
2018-05-17T03:52:42.073Z,30.00
2018-05-17T03:55:16.215Z,26.90
2018-05-17T03:57:50.522Z,27.70
2018-05-17T04:00:25.275Z,22.20
2018-05-17T04:03:11.078Z,25.40
2018-05-17T04:05:57.322Z,37.87
2018-05-17T04:08:31.335Z,28.90
2018-05-17T04:11:06.217Z,22.30
2018-05-17T04:13:40.270Z,31.23
2018-05-17T04:16:14.282Z,33.23
2018-05-17T04:18:48.248Z,28.67
2018-05-17T04:21:22.367Z,25.83
2018-05-17T04:23:56.568Z,28.07
2018-05-17T04:26:33.916Z,28.40
2018-05-17T04:29:08.086Z,27.43
2018-05-17T04:31:42.279Z,26.53
2018-05-17T04:34:16.358Z,30.67
2018-05-17T04:36:50.474Z,23.90
2018-05-17T04:39:25.815Z,30.63
2018-05-17T04:41:59.879Z,32.57
2018-05-17T04:44:33.837Z,22.77
2018-05-17T04:47:09.341Z,31.20
2018-05-17T04:49:43.085Z,35.47
2018-05-17T04:52:17.203Z,20.57
2018-05-17T04:54:51.261Z,27.60
2018-05-17T04:57:25.177Z,26.43
2018-05-17T05:00:00.570Z,31.17
2018-05-17T05:02:34.959Z,33.53
2018-05-17T05:05:08.850Z,25.97
2018-05-17T05:07:42.907Z,29.23
2018-05-17T05:10:17.052Z,22.73
2018-05-17T05:12:52.602Z,25.17
2018-05-17T05:15:26.716Z,23.27
2018-05-17T05:18:02.197Z,26.40
2018-05-17T05:20:36.136Z,24.83
2018-05-17T05:23:09.917Z,21.70
2018-05-17T05:25:43.936Z,25.47
2018-05-17T05:28:18.873Z,27.00
2018-05-17T05:30:53.834Z,25.40
2018-05-17T05:33:28.877Z,27.90
2018-05-17T05:36:02.758Z,21.03
2018-05-17T05:38:36.651Z,19.77
2018-05-17T05:41:10.597Z,25.20
2018-05-17T05:43:45.388Z,31.10
2018-05-17T05:46:20.433Z,31.87
2018-05-17T05:48:54.592Z,26.33
2018-05-17T05:51:28.454Z,28.17
2018-05-17T05:54:03.320Z,24.73
2018-05-17T05:56:37.124Z,32.23
2018-05-17T05:59:11.834Z,28.77
2018-05-17T06:01:45.760Z,37.70
2018-05-17T06:04:19.771Z,22.53
2018-05-17T06:06:54.524Z,24.13
2018-05-17T06:09:28.495Z,28.43
2018-05-17T06:12:03.119Z,21.63
2018-05-17T06:14:38.054Z,27.00
2018-05-17T06:17:11.789Z,28.83
2018-05-17T06:19:45.865Z,26.80
2018-05-17T06:22:20.101Z,24.97
2018-05-17T06:24:54.096Z,27.47
2018-05-17T06:27:27.979Z,24.17
2018-05-17T06:30:02.859Z,25.70
2018-05-17T06:32:37.479Z,24.20
2018-05-17T06:35:11.354Z,25.80
2018-05-17T06:37:45.292Z,25.23
2018-05-17T06:40:19.207Z,27.57
2018-05-17T06:42:53.849Z,29.03
2018-05-17T06:45:27.669Z,22.23
2018-05-17T06:48:01.365Z,23.20
2018-05-17T06:50:35.185Z,24.83
2018-05-17T06:53:09.040Z,23.70
2018-05-17T06:55:44.027Z,24.00
2018-05-17T06:58:17.869Z,31.63
2018-05-17T07:00:51.644Z,20.97
2018-05-17T07:03:25.201Z,19.90
2018-05-17T07:05:58.855Z,28.50
2018-05-17T07:08:32.745Z,24.67
2018-05-17T07:11:07.365Z,23.47
2018-05-17T07:13:41.152Z,23.63
2018-05-17T07:16:14.935Z,28.60
2018-05-17T07:18:49.692Z,18.97
2018-05-17T07:21:23.471Z,24.03
2018-05-17T07:23:58.023Z,25.57
2018-05-17T07:26:32.098Z,25.20
2018-05-17T07:29:05.750Z,18.90
2018-05-17T07:31:39.675Z,27.97
2018-05-17T07:34:13.439Z,19.73
2018-05-17T07:36:47.183Z,23.43
2018-05-17T07:39:21.875Z,14.80
2018-05-17T07:41:55.807Z,16.40
2018-05-17T07:44:29.861Z,25.20
2018-05-17T07:47:03.871Z,19.10
2018-05-17T07:49:38.189Z,19.03
2018-05-17T07:52:14.477Z,21.07
2018-05-17T07:54:48.685Z,26.57
2018-05-17T07:57:22.413Z,17.27
2018-05-17T07:59:56.159Z,21.73
2018-05-17T08:02:30.184Z,15.73
2018-05-17T08:05:04.802Z,21.43
2018-05-17T08:07:39.247Z,25.30
2018-05-17T08:10:08.644Z,20.90
2018-05-17T08:12:37.561Z,20.20
2018-05-17T08:15:06.592Z,20.70
2018-05-17T08:17:34.849Z,16.53
2018-05-17T08:20:04.154Z,21.60
2018-05-17T08:22:32.495Z,18.77
2018-05-17T08:25:00.784Z,20.80
2018-05-17T08:27:29.851Z,19.80
2018-05-17T08:29:58.968Z,12.43
2018-05-17T08:32:28.039Z,17.50
2018-05-17T08:34:56.270Z,20.40
2018-05-17T08:37:24.447Z,19.63
2018-05-17T08:39:52.766Z,13.50
2018-05-17T08:42:21.818Z,19.03
2018-05-17T08:44:50.010Z,17.47
2018-05-17T08:47:18.212Z,16.67
2018-05-17T08:49:47.277Z,17.43
2018-05-17T08:52:15.606Z,19.17
2018-05-17T08:54:43.947Z,18.30
2018-05-17T08:57:12.175Z,15.47
2018-05-17T08:59:40.478Z,17.80
2018-05-17T09:02:08.674Z,20.70
2018-05-17T09:04:36.877Z,20.30
2018-05-17T09:07:05.204Z,18.57
2018-05-17T09:09:33.457Z,16.20
2018-05-17T09:12:01.739Z,18.63
2018-05-17T09:14:29.962Z,21.00
2018-05-17T09:16:58.934Z,16.83
2018-05-17T09:19:27.133Z,17.73
2018-05-17T09:21:56.164Z,18.53
2018-05-17T09:24:24.377Z,13.20
2018-05-17T09:26:53.409Z,17.77
2018-05-17T09:29:21.597Z,18.27
2018-05-17T09:31:49.782Z,18.20
2018-05-17T09:34:18.044Z,20.17
2018-05-17T09:36:46.302Z,20.67
2018-05-17T09:39:14.511Z,15.50
2018-05-17T09:41:42.692Z,17.73
2018-05-17T09:44:10.920Z,14.50
2018-05-17T09:46:39.215Z,16.77
2018-05-17T09:49:07.500Z,15.47
2018-05-17T09:51:35.739Z,17.00
2018-05-17T09:54:04.436Z,13.33
2018-05-17T09:56:32.652Z,14.70
2018-05-17T09:59:00.826Z,13.17
2018-05-17T10:01:29.052Z,21.03
2018-05-17T10:03:57.233Z,19.13
2018-05-17T10:06:25.440Z,18.63
2018-05-17T10:08:53.723Z,19.40
2018-05-17T10:11:21.901Z,15.70
2018-05-17T10:13:50.179Z,25.83
2018-05-17T10:16:18.376Z,16.90
2018-05-17T10:18:46.617Z,20.67
2018-05-17T10:21:15.048Z,17.10
2018-05-17T10:23:43.245Z,17.80
2018-05-17T10:26:11.428Z,17.17
2018-05-17T10:28:39.625Z,16.33
2018-05-17T10:31:08.634Z,17.70
2018-05-17T10:33:37.680Z,18.97
2018-05-17T10:36:06.049Z,12.37
2018-05-17T10:38:34.232Z,16.67
2018-05-17T10:41:03.257Z,14.73
2018-05-17T10:43:32.243Z,19.90
2018-05-17T10:46:01.244Z,15.60
2018-05-17T10:48:29.445Z,15.57
2018-05-17T10:50:57.747Z,14.37
2018-05-17T10:53:25.935Z,17.00
2018-05-17T10:55:54.199Z,18.77
2018-05-17T10:58:23.235Z,20.00
2018-05-17T11:00:52.228Z,17.73
2018-05-17T11:03:21.882Z,16.73
2018-05-17T11:05:50.141Z,20.57
2018-05-17T11:08:18.330Z,15.63
2018-05-17T11:10:46.655Z,17.43
2018-05-17T11:13:16.230Z,17.67
2018-05-17T11:15:44.536Z,15.63
2018-05-17T11:18:14.075Z,16.90
2018-05-17T11:20:42.317Z,18.67
2018-05-17T11:23:11.373Z,15.27
2018-05-17T11:25:39.620Z,18.47
2018-05-17T11:28:07.905Z,16.07
2018-05-17T11:30:36.171Z,16.13
2018-05-17T11:33:04.428Z,23.90
2018-05-17T11:35:33.596Z,17.07
2018-05-17T11:38:02.674Z,16.00
2018-05-17T11:40:31.021Z,17.90
2018-05-17T11:42:59.313Z,16.17
2018-05-17T11:45:27.564Z,13.93
2018-05-17T11:47:55.793Z,17.13
2018-05-17T11:50:24.808Z,15.10
2018-05-17T11:52:52.994Z,18.93
2018-05-17T11:55:21.225Z,15.77
2018-05-17T11:57:49.490Z,17.47
2018-05-17T12:00:17.697Z,19.60
2018-05-17T12:02:46.042Z,21.57
2018-05-17T12:05:14.972Z,16.30
2018-05-17T12:07:43.195Z,14.30
2018-05-17T12:10:11.473Z,19.43
2018-05-17T12:12:39.807Z,18.03
2018-05-17T12:15:08.125Z,15.17
2018-05-17T12:17:36.355Z,17.47
2018-05-17T12:20:04.561Z,17.37
2018-05-17T12:22:32.831Z,14.93
2018-05-17T12:25:01.068Z,14.13
2018-05-17T12:27:30.000Z,19.63
2018-05-17T12:29:58.200Z,11.97
2018-05-17T12:32:26.412Z,19.17
2018-05-17T12:34:54.663Z,23.90
2018-05-17T12:37:22.970Z,14.90
2018-05-17T12:39:51.221Z,19.70
2018-05-17T12:42:19.431Z,16.33
2018-05-17T12:44:47.629Z,17.80
2018-05-17T12:47:15.796Z,24.40
2018-05-17T12:49:44.003Z,16.40
2018-05-17T12:52:13.051Z,15.80
2018-05-17T12:54:41.274Z,17.63
2018-05-17T12:57:09.549Z,14.33
2018-05-17T12:59:37.871Z,16.77
2018-05-17T13:02:06.118Z,17.93
2018-05-17T13:04:34.395Z,17.53
2018-05-17T13:07:02.702Z,19.57
2018-05-17T13:09:30.929Z,15.73
2018-05-17T13:11:59.217Z,18.43
2018-05-17T13:14:27.414Z,15.93
2018-05-17T13:16:55.695Z,17.47
2018-05-17T13:19:24.075Z,15.23
2018-05-17T13:21:52.284Z,19.53
2018-05-17T13:24:21.313Z,18.90
2018-05-17T13:26:49.542Z,14.90
2018-05-17T13:29:17.881Z,17.97
2018-05-17T13:31:46.076Z,14.67
2018-05-17T13:34:14.648Z,13.50
2018-05-17T13:36:44.033Z,9.93
2018-05-17T13:39:14.200Z,13.70
2018-05-17T13:41:42.729Z,14.43
2018-05-17T13:44:10.944Z,17.93
2018-05-17T13:46:39.457Z,14.23
2018-05-17T13:49:08.771Z,16.00
2018-05-17T13:51:36.998Z,17.30
2018-05-17T13:54:05.173Z,18.30
2018-05-17T13:56:33.651Z,13.53
2018-05-17T13:59:02.498Z,13.93
2018-05-17T14:01:31.656Z,15.53
2018-05-17T14:04:00.703Z,13.63
2018-05-17T14:06:28.999Z,14.17
2018-05-17T14:08:57.269Z,14.87
2018-05-17T14:11:25.469Z,17.00
2018-05-17T14:13:54.770Z,16.00
2018-05-17T14:16:24.014Z,16.33
2018-05-17T14:18:52.333Z,14.40
2018-05-17T14:21:21.443Z,13.83
2018-05-17T14:23:50.487Z,12.83
2018-05-17T14:26:18.970Z,13.27
2018-05-17T14:28:47.275Z,13.07
2018-05-17T14:31:16.644Z,14.27
2018-05-17T14:33:46.009Z,17.90
2018-05-17T14:36:14.526Z,10.73
2018-05-17T14:38:42.937Z,22.50
2018-05-17T14:41:11.638Z,12.67
2018-05-17T14:43:40.163Z,23.73
2018-05-17T14:46:08.534Z,21.20
2018-05-17T14:48:40.137Z,18.70
2018-05-17T14:51:10.071Z,16.45
2018-05-17T14:53:38.589Z,15.80
2018-05-17T14:56:07.105Z,16.63
2018-05-17T14:58:36.164Z,14.23
2018-05-17T15:01:04.713Z,14.17
2018-05-17T15:03:32.925Z,13.00
2018-05-17T15:06:01.182Z,16.13
2018-05-17T15:08:31.245Z,15.90
2018-05-17T15:10:59.637Z,14.57
2018-05-17T15:13:28.297Z,13.10
2018-05-17T15:15:58.377Z,15.93
2018-05-17T15:18:29.284Z,12.80
2018-05-17T15:20:58.990Z,17.97
2018-05-17T15:23:31.257Z,14.23
2018-05-17T15:26:03.992Z,19.33
2018-05-17T15:31:30.120Z,13.13
2018-05-17T15:33:59.610Z,11.33
2018-05-17T15:36:28.631Z,18.80
2018-05-17T15:38:56.897Z,15.37
2018-05-17T15:41:25.389Z,17.93
2018-05-17T15:43:53.657Z,19.13
2018-05-17T15:46:21.851Z,17.83
2018-05-17T15:48:50.226Z,16.43
2018-05-17T15:51:18.574Z,14.73
2018-05-17T15:53:47.219Z,19.33
2018-05-17T15:56:16.335Z,16.47
2018-05-17T15:58:44.561Z,18.77
2018-05-17T16:01:12.938Z,17.87
2018-05-17T16:03:41.273Z,16.90
2018-05-17T16:06:09.562Z,19.73
2018-05-17T16:08:46.727Z,17.23
2018-05-17T16:11:14.953Z,14.83
2018-05-17T16:13:44.060Z,19.13
2018-05-17T16:16:13.998Z,19.77
2018-05-17T16:18:42.322Z,16.13
2018-05-17T16:21:10.701Z,16.87
2018-05-17T16:23:39.141Z,17.50
2018-05-17T16:26:07.463Z,18.53
2018-05-17T16:28:36.474Z,18.20
2018-05-17T16:31:05.511Z,19.60
2018-05-17T16:33:34.700Z,23.03
2018-05-17T16:36:02.967Z,16.33
2018-05-17T16:38:31.228Z,14.20
2018-05-17T16:40:59.533Z,16.60
2018-05-17T16:43:27.834Z,17.70
2018-05-17T16:45:56.142Z,15.13
2018-05-17T16:48:25.226Z,17.20
2018-05-17T16:50:54.327Z,20.73
2018-05-17T16:53:22.664Z,19.00
2018-05-17T16:55:50.752Z,15.53
2018-05-17T16:58:19.721Z,20.93
2018-05-17T17:00:48.034Z,18.50
2018-05-17T17:03:17.067Z,15.97
2018-05-17T17:05:46.183Z,18.47
2018-05-17T17:08:14.427Z,12.73
2018-05-17T17:10:42.695Z,17.87
2018-05-17T17:13:11.847Z,21.53
2018-05-17T17:15:40.111Z,13.47
2018-05-17T17:18:08.573Z,14.23
2018-05-17T17:20:36.942Z,16.03
2018-05-17T17:23:05.172Z,17.53
2018-05-17T17:25:34.305Z,17.30
2018-05-17T17:28:02.639Z,22.93
2018-05-17T17:30:30.993Z,20.97
2018-05-17T17:32:59.508Z,20.23
2018-05-17T17:35:27.820Z,25.80
2018-05-17T17:37:56.163Z,21.43
2018-05-17T17:40:30.306Z,18.63
2018-05-17T17:42:58.641Z,17.43
2018-05-17T17:45:27.715Z,28.77
2018-05-17T17:47:56.753Z,19.40
2018-05-17T17:50:25.064Z,17.57
2018-05-17T17:52:53.353Z,17.47
2018-05-17T17:55:21.790Z,16.67
2018-05-17T17:57:50.152Z,12.30
2018-05-17T18:00:18.929Z,17.70
2018-05-17T18:02:47.700Z,15.40
2018-05-17T18:05:16.085Z,18.83
2018-05-17T18:07:44.390Z,20.00
2018-05-17T18:10:13.324Z,15.23
2018-05-17T18:12:42.653Z,18.37
2018-05-17T18:15:11.674Z,25.20
2018-05-17T18:17:39.893Z,16.87
2018-05-17T18:20:08.290Z,19.23
2018-05-17T18:22:37.470Z,17.90
2018-05-17T18:25:06.671Z,20.13
2018-05-17T18:27:35.893Z,16.60
2018-05-17T18:30:04.372Z,17.63
2018-05-17T18:32:33.543Z,16.33
2018-05-17T18:35:01.822Z,14.53
2018-05-17T18:37:31.629Z,24.77
2018-05-17T18:40:01.191Z,17.07
2018-05-17T18:42:31.006Z,18.20
2018-05-17T18:45:01.538Z,14.17
2018-05-17T18:47:31.369Z,21.53
2018-05-17T18:50:01.550Z,18.80
2018-05-17T18:52:34.306Z,19.33
2018-05-17T18:55:02.828Z,18.43
2018-05-17T18:57:31.343Z,18.30
2018-05-17T19:00:01.491Z,15.50
2018-05-17T19:02:30.928Z,16.27
2018-05-17T19:04:59.825Z,11.43
2018-05-17T19:07:31.580Z,19.67
2018-05-17T19:10:06.671Z,13.00
2018-05-17T19:12:43.690Z,18.17
2018-05-17T19:19:22.803Z,15.13
2018-05-17T19:22:01.269Z,15.03
2018-05-17T19:28:20.899Z,20.67
2018-05-17T19:30:55.745Z,19.43
2018-05-17T19:40:45.851Z,14.73
2018-05-17T19:43:34.710Z,20.07
2018-05-17T19:46:16.303Z,17.27
2018-05-17T19:49:02.796Z,17.87
2018-05-17T19:55:38.834Z,18.77
2018-05-17T19:58:07.468Z,17.33
2018-05-17T20:00:36.818Z,14.80
2018-05-17T20:03:05.755Z,23.63
2018-05-17T20:05:34.590Z,20.77
2018-05-17T20:08:02.916Z,15.87
2018-05-17T20:10:32.044Z,15.30
2018-05-17T20:13:03.685Z,21.17
2018-05-17T20:15:32.158Z,26.77
2018-05-17T20:18:01.982Z,20.00
2018-05-17T20:20:31.469Z,15.23
2018-05-17T20:22:59.825Z,19.67
2018-05-17T20:25:28.340Z,21.40
2018-05-17T20:27:56.908Z,23.13
2018-05-17T20:30:27.259Z,13.33
2018-05-17T20:32:55.810Z,18.47
2018-05-17T20:35:24.790Z,15.57
2018-05-17T20:37:53.981Z,15.70
2018-05-17T20:40:22.799Z,15.90
2018-05-17T20:42:52.144Z,20.50
2018-05-17T20:45:22.248Z,13.77
2018-05-17T20:47:54.086Z,17.20
2018-05-17T20:50:25.392Z,17.10
2018-05-17T20:52:56.240Z,12.63
2018-05-17T20:55:26.753Z,19.57
2018-05-17T20:57:57.004Z,20.20
2018-05-17T21:00:25.461Z,15.57
2018-05-17T21:02:54.167Z,15.13
2018-05-17T21:05:22.830Z,10.87
2018-05-17T21:07:52.543Z,17.77
2018-05-17T21:10:22.828Z,16.47
2018-05-17T21:12:51.517Z,21.50
2018-05-17T21:15:20.029Z,15.83
2018-05-17T21:17:49.093Z,18.23
2018-05-17T21:20:18.242Z,14.20
2018-05-17T21:22:47.859Z,14.63
2018-05-17T21:25:16.165Z,16.00
2018-05-17T21:27:44.438Z,18.90
2018-05-17T21:30:12.914Z,14.97
2018-05-17T21:32:41.167Z,21.80
2018-05-17T21:35:09.467Z,16.90
2018-05-17T21:37:37.906Z,17.90
2018-05-17T21:40:07.046Z,17.90
2018-05-17T21:42:36.353Z,13.67
2018-05-17T21:45:04.882Z,16.07
2018-05-17T21:47:34.333Z,20.77
2018-05-17T21:50:02.912Z,22.00
2018-05-17T21:52:31.451Z,23.00
2018-05-17T21:55:00.772Z,16.73
2018-05-17T21:57:29.258Z,20.17
2018-05-17T21:59:57.666Z,21.47
2018-05-17T22:02:25.945Z,19.87
2018-05-17T22:04:55.275Z,18.57
2018-05-17T22:07:24.404Z,17.83
2018-05-17T22:09:52.809Z,18.03
2018-05-17T22:12:22.147Z,21.57
2018-05-17T22:14:51.218Z,22.90
2018-05-17T22:17:30.810Z,20.13
2018-05-17T22:20:00.470Z,21.47
2018-05-17T22:22:30.240Z,20.73
2018-05-17T22:24:58.537Z,14.87
2018-05-17T22:27:26.837Z,20.93
2018-05-17T22:29:57.321Z,20.50
2018-05-17T22:32:26.880Z,20.00
2018-05-17T22:34:55.812Z,21.47
2018-05-17T22:37:24.042Z,18.43
2018-05-17T22:39:52.305Z,20.77
2018-05-17T22:42:29.602Z,26.70
2018-05-17T22:44:59.109Z,11.93
2018-05-17T22:47:28.203Z,14.47
2018-05-17T22:49:57.196Z,9.87
2018-05-17T22:52:26.198Z,9.63
2018-05-17T22:54:54.466Z,10.53
2018-05-17T22:57:34.381Z,11.43
2018-05-17T23:00:02.723Z,11.60
2018-05-17T23:02:36.694Z,8.43
2018-05-17T23:05:10.450Z,11.87
2018-05-17T23:07:44.779Z,10.80
2018-05-17T23:10:19.540Z,10.37
2018-05-17T23:12:53.417Z,10.93
2018-05-17T23:15:27.161Z,13.20
2018-05-17T23:18:02.410Z,9.27
2018-05-17T23:20:36.321Z,11.17
2018-05-17T23:23:10.142Z,11.87
2018-05-17T23:25:44.648Z,7.93
2018-05-17T23:28:19.327Z,9.20
2018-05-17T23:30:53.226Z,7.87
2018-05-17T23:33:27.118Z,9.40
2018-05-17T23:36:00.797Z,11.97
2018-05-17T23:38:35.320Z,9.07
2018-05-17T23:41:20.929Z,9.43
2018-05-17T23:43:55.539Z,6.07
2018-05-17T23:46:29.514Z,8.80
2018-05-17T23:49:04.007Z,8.03
2018-05-17T23:51:37.804Z,6.83
2018-05-17T23:54:11.673Z,9.47
2018-05-17T23:56:45.582Z,8.90
2018-05-17T23:59:19.318Z,7.07
